sensor_id;sensor_type;location;lat;lon;timestamp;temperature;humidity
5786;DHT22;2919;48.630;9.000;2022-10-16T00:01:23;14.50;99.90
5786;DHT22;2919;48.630;9.000;2022-10-16T00:03:49;14.50;99.90
5786;DHT22;2919;48.630;9.000;2022-10-16T00:06:16;14.50;99.90
5786;DHT22;2919;48.630;9.000;2022-10-16T00:08:42;14.50;99.90
5786;DHT22;2919;48.630;9.000;2022-10-16T00:11:14;14.50;99.90
5786;DHT22;2919;48.630;9.000;2022-10-16T00:13:42;14.60;99.90
5786;DHT22;2919;48.630;9.000;2022-10-16T00:16:09;14.60;99.90
5786;DHT22;2919;48.630;9.000;2022-10-16T00:18:35;14.50;99.90
5786;DHT22;2919;48.630;9.000;2022-10-16T00:21:04;14.50;99.90
5786;DHT22;2919;48.630;9.000;2022-10-16T00:23:30;14.50;99.90
5786;DHT22;2919;48.630;9.000;2022-10-16T00:26:02;14.50;99.90
5786;DHT22;2919;48.630;9.000;2022-10-16T00:28:29;14.40;99.90
5786;DHT22;2919;48.630;9.000;2022-10-16T00:30:55;14.50;99.90
5786;DHT22;2919;48.630;9.000;2022-10-16T00:33:20;14.40;99.90
5786;DHT22;2919;48.630;9.000;2022-10-16T00:35:46;14.40;99.90
5786;DHT22;2919;48.630;9.000;2022-10-16T00:38:12;14.40;99.90
5786;DHT22;2919;48.630;9.000;2022-10-16T00:40:38;14.40;99.90
5786;DHT22;2919;48.630;9.000;2022-10-16T00:45:54;14.30;99.90
5786;DHT22;2919;48.630;9.000;2022-10-16T00:48:19;14.30;99.90
5786;DHT22;2919;48.630;9.000;2022-10-16T00:50:45;14.30;99.90
5786;DHT22;2919;48.630;9.000;2022-10-16T00:53:11;14.30;99.90
5786;DHT22;2919;48.630;9.000;2022-10-16T00:55:37;14.30;99.90
5786;DHT22;2919;48.630;9.000;2022-10-16T00:58:03;14.30;99.90
5786;DHT22;2919;48.630;9.000;2022-10-16T01:00:28;14.30;99.90
5786;DHT22;2919;48.630;9.000;2022-10-16T01:02:57;14.30;99.90
5786;DHT22;2919;48.630;9.000;2022-10-16T01:05:25;14.30;99.90
5786;DHT22;2919;48.630;9.000;2022-10-16T01:08:08;14.40;99.90
5786;DHT22;2919;48.630;9.000;2022-10-16T01:10:57;14.40;99.90
5786;DHT22;2919;48.630;9.000;2022-10-16T01:16:06;14.30;99.90
5786;DHT22;2919;48.630;9.000;2022-10-16T01:21:24;14.50;99.90
5786;DHT22;2919;48.630;9.000;2022-10-16T01:34:48;14.30;99.90
5786;DHT22;2919;48.630;9.000;2022-10-16T01:37:22;14.30;99.90
5786;DHT22;2919;48.630;9.000;2022-10-16T01:39:49;14.50;99.90
5786;DHT22;2919;48.630;9.000;2022-10-16T01:42:22;14.30;99.90
5786;DHT22;2919;48.630;9.000;2022-10-16T01:44:50;14.30;99.90
5786;DHT22;2919;48.630;9.000;2022-10-16T01:47:17;14.20;99.90
5786;DHT22;2919;48.630;9.000;2022-10-16T01:49:43;14.20;99.90
5786;DHT22;2919;48.630;9.000;2022-10-16T01:52:15;14.10;99.90
5786;DHT22;2919;48.630;9.000;2022-10-16T01:54:43;14.10;99.90
5786;DHT22;2919;48.630;9.000;2022-10-16T01:57:11;14.10;99.90
5786;DHT22;2919;48.630;9.000;2022-10-16T01:59:42;14.10;99.90
5786;DHT22;2919;48.630;9.000;2022-10-16T02:02:10;14.00;99.90
5786;DHT22;2919;48.630;9.000;2022-10-16T02:04:55;14.00;99.90
5786;DHT22;2919;48.630;9.000;2022-10-16T02:07:23;13.90;99.90
5786;DHT22;2919;48.630;9.000;2022-10-16T02:09:49;13.90;99.90
5786;DHT22;2919;48.630;9.000;2022-10-16T02:14:44;13.90;99.90
5786;DHT22;2919;48.630;9.000;2022-10-16T02:17:16;13.90;99.90
5786;DHT22;2919;48.630;9.000;2022-10-16T02:19:42;14.00;99.90
5786;DHT22;2919;48.630;9.000;2022-10-16T02:22:11;13.90;99.90
5786;DHT22;2919;48.630;9.000;2022-10-16T02:27:19;14.00;99.90
5786;DHT22;2919;48.630;9.000;2022-10-16T02:29:52;14.00;99.90
5786;DHT22;2919;48.630;9.000;2022-10-16T02:32:21;14.10;99.90
5786;DHT22;2919;48.630;9.000;2022-10-16T02:34:49;14.20;99.90
5786;DHT22;2919;48.630;9.000;2022-10-16T02:37:16;14.20;99.90
5786;DHT22;2919;48.630;9.000;2022-10-16T02:39:42;14.20;99.90
5786;DHT22;2919;48.630;9.000;2022-10-16T02:42:13;14.30;99.90
5786;DHT22;2919;48.630;9.000;2022-10-16T02:44:39;14.30;99.90
5786;DHT22;2919;48.630;9.000;2022-10-16T02:47:04;14.30;99.90
5786;DHT22;2919;48.630;9.000;2022-10-16T02:49:30;14.40;99.90
5786;DHT22;2919;48.630;9.000;2022-10-16T02:51:55;14.40;99.90
5786;DHT22;2919;48.630;9.000;2022-10-16T02:54:21;14.50;99.90
5786;DHT22;2919;48.630;9.000;2022-10-16T02:56:47;14.50;99.90
5786;DHT22;2919;48.630;9.000;2022-10-16T02:59:12;14.60;99.90
5786;DHT22;2919;48.630;9.000;2022-10-16T03:01:38;14.60;99.90
5786;DHT22;2919;48.630;9.000;2022-10-16T03:04:03;14.60;99.90
5786;DHT22;2919;48.630;9.000;2022-10-16T03:06:29;14.60;99.90
5786;DHT22;2919;48.630;9.000;2022-10-16T03:08:55;14.60;99.90
5786;DHT22;2919;48.630;9.000;2022-10-16T03:11:20;14.60;99.90
5786;DHT22;2919;48.630;9.000;2022-10-16T03:13:46;14.60;99.90
5786;DHT22;2919;48.630;9.000;2022-10-16T03:16:11;14.60;99.90
5786;DHT22;2919;48.630;9.000;2022-10-16T03:18:37;14.60;99.90
5786;DHT22;2919;48.630;9.000;2022-10-16T03:21:02;14.50;99.90
5786;DHT22;2919;48.630;9.000;2022-10-16T03:23:28;14.50;99.90
5786;DHT22;2919;48.630;9.000;2022-10-16T03:25:54;14.50;99.90
5786;DHT22;2919;48.630;9.000;2022-10-16T03:28:20;14.50;99.90
5786;DHT22;2919;48.630;9.000;2022-10-16T03:30:45;14.50;99.90
5786;DHT22;2919;48.630;9.000;2022-10-16T03:33:11;14.50;99.90
5786;DHT22;2919;48.630;9.000;2022-10-16T03:35:37;14.40;99.90
5786;DHT22;2919;48.630;9.000;2022-10-16T03:38:03;14.40;99.90
5786;DHT22;2919;48.630;9.000;2022-10-16T03:40:28;14.40;99.90
5786;DHT22;2919;48.630;9.000;2022-10-16T03:42:55;14.40;99.90
5786;DHT22;2919;48.630;9.000;2022-10-16T03:45:23;14.40;99.90
5786;DHT22;2919;48.630;9.000;2022-10-16T03:47:48;14.50;99.90
5786;DHT22;2919;48.630;9.000;2022-10-16T03:50:14;14.60;99.90
5786;DHT22;2919;48.630;9.000;2022-10-16T03:52:40;14.50;99.90
5786;DHT22;2919;48.630;9.000;2022-10-16T03:55:06;14.40;99.90
5786;DHT22;2919;48.630;9.000;2022-10-16T03:57:31;14.50;99.90
5786;DHT22;2919;48.630;9.000;2022-10-16T03:59:57;14.50;99.90
5786;DHT22;2919;48.630;9.000;2022-10-16T04:02:22;14.50;99.90
5786;DHT22;2919;48.630;9.000;2022-10-16T04:04:48;14.60;99.90
5786;DHT22;2919;48.630;9.000;2022-10-16T04:07:14;14.50;99.90
5786;DHT22;2919;48.630;9.000;2022-10-16T04:09:40;14.50;99.90
5786;DHT22;2919;48.630;9.000;2022-10-16T04:12:05;14.60;99.90
5786;DHT22;2919;48.630;9.000;2022-10-16T04:14:31;14.60;99.90
5786;DHT22;2919;48.630;9.000;2022-10-16T04:16:56;14.70;99.90
5786;DHT22;2919;48.630;9.000;2022-10-16T04:19:22;14.70;99.90
5786;DHT22;2919;48.630;9.000;2022-10-16T04:21:48;14.70;99.90
5786;DHT22;2919;48.630;9.000;2022-10-16T04:24:13;14.70;99.90
5786;DHT22;2919;48.630;9.000;2022-10-16T04:26:39;14.70;99.90
5786;DHT22;2919;48.630;9.000;2022-10-16T04:29:04;14.70;99.90
5786;DHT22;2919;48.630;9.000;2022-10-16T04:31:31;14.60;99.90
5786;DHT22;2919;48.630;9.000;2022-10-16T04:33:57;14.60;99.90
5786;DHT22;2919;48.630;9.000;2022-10-16T04:36:22;14.60;99.90
5786;DHT22;2919;48.630;9.000;2022-10-16T04:38:48;14.60;99.90
5786;DHT22;2919;48.630;9.000;2022-10-16T04:41:13;14.60;99.90
5786;DHT22;2919;48.630;9.000;2022-10-16T04:43:39;14.60;99.90
5786;DHT22;2919;48.630;9.000;2022-10-16T04:46:04;14.60;99.90
5786;DHT22;2919;48.630;9.000;2022-10-16T04:48:31;14.60;99.90
5786;DHT22;2919;48.630;9.000;2022-10-16T04:50:57;14.60;99.90
5786;DHT22;2919;48.630;9.000;2022-10-16T04:53:22;14.70;99.90
5786;DHT22;2919;48.630;9.000;2022-10-16T04:55:49;14.70;99.90
5786;DHT22;2919;48.630;9.000;2022-10-16T04:58:14;14.70;99.90
5786;DHT22;2919;48.630;9.000;2022-10-16T05:00:40;14.70;99.90
5786;DHT22;2919;48.630;9.000;2022-10-16T05:03:05;14.70;99.90
5786;DHT22;2919;48.630;9.000;2022-10-16T05:05:34;14.70;99.90
5786;DHT22;2919;48.630;9.000;2022-10-16T05:08:00;14.70;99.90
5786;DHT22;2919;48.630;9.000;2022-10-16T05:10:26;14.60;99.90
5786;DHT22;2919;48.630;9.000;2022-10-16T05:12:52;14.60;99.90
5786;DHT22;2919;48.630;9.000;2022-10-16T05:15:17;14.40;99.90
5786;DHT22;2919;48.630;9.000;2022-10-16T05:17:43;14.40;99.90
5786;DHT22;2919;48.630;9.000;2022-10-16T05:20:09;14.30;99.90
5786;DHT22;2919;48.630;9.000;2022-10-16T05:22:35;14.20;99.90
5786;DHT22;2919;48.630;9.000;2022-10-16T05:25:01;14.10;99.90
5786;DHT22;2919;48.630;9.000;2022-10-16T05:27:26;14.00;99.90
5786;DHT22;2919;48.630;9.000;2022-10-16T05:29:52;13.90;99.90
5786;DHT22;2919;48.630;9.000;2022-10-16T05:32:18;13.80;99.90
5786;DHT22;2919;48.630;9.000;2022-10-16T05:34:44;13.70;99.90
5786;DHT22;2919;48.630;9.000;2022-10-16T05:37:11;13.60;99.90
5786;DHT22;2919;48.630;9.000;2022-10-16T05:39:38;13.50;99.90
5786;DHT22;2919;48.630;9.000;2022-10-16T05:42:04;13.50;99.90
5786;DHT22;2919;48.630;9.000;2022-10-16T05:44:30;13.40;99.90
5786;DHT22;2919;48.630;9.000;2022-10-16T05:46:56;13.40;99.90
5786;DHT22;2919;48.630;9.000;2022-10-16T05:49:21;13.40;99.90
5786;DHT22;2919;48.630;9.000;2022-10-16T05:51:47;13.40;99.90
5786;DHT22;2919;48.630;9.000;2022-10-16T05:54:12;13.40;99.90
5786;DHT22;2919;48.630;9.000;2022-10-16T05:56:38;13.40;99.90
5786;DHT22;2919;48.630;9.000;2022-10-16T05:59:04;13.50;99.90
5786;DHT22;2919;48.630;9.000;2022-10-16T06:01:30;13.50;99.90
5786;DHT22;2919;48.630;9.000;2022-10-16T06:03:56;13.60;99.90
5786;DHT22;2919;48.630;9.000;2022-10-16T06:06:24;13.50;99.90
5786;DHT22;2919;48.630;9.000;2022-10-16T06:08:52;13.60;99.90
5786;DHT22;2919;48.630;9.000;2022-10-16T06:11:20;13.60;99.90
5786;DHT22;2919;48.630;9.000;2022-10-16T06:13:54;13.60;99.90
5786;DHT22;2919;48.630;9.000;2022-10-16T06:16:22;13.60;99.90
5786;DHT22;2919;48.630;9.000;2022-10-16T06:18:51;13.60;99.90
5786;DHT22;2919;48.630;9.000;2022-10-16T06:21:19;13.70;99.90
5786;DHT22;2919;48.630;9.000;2022-10-16T06:23:46;13.70;99.90
5786;DHT22;2919;48.630;9.000;2022-10-16T06:26:14;13.80;99.90
5786;DHT22;2919;48.630;9.000;2022-10-16T06:28:40;13.80;99.90
5786;DHT22;2919;48.630;9.000;2022-10-16T06:31:08;13.90;99.90
5786;DHT22;2919;48.630;9.000;2022-10-16T06:33:34;13.90;99.90
5786;DHT22;2919;48.630;9.000;2022-10-16T06:36:01;14.00;99.90
5786;DHT22;2919;48.630;9.000;2022-10-16T06:38:28;14.10;99.90
5786;DHT22;2919;48.630;9.000;2022-10-16T06:40:54;14.10;99.90
5786;DHT22;2919;48.630;9.000;2022-10-16T06:43:20;14.20;99.90
5786;DHT22;2919;48.630;9.000;2022-10-16T06:45:56;14.20;99.90
5786;DHT22;2919;48.630;9.000;2022-10-16T06:48:22;14.30;99.90
5786;DHT22;2919;48.630;9.000;2022-10-16T06:50:59;14.40;99.90
5786;DHT22;2919;48.630;9.000;2022-10-16T06:53:25;14.50;99.90
5786;DHT22;2919;48.630;9.000;2022-10-16T06:55:51;14.60;99.90
5786;DHT22;2919;48.630;9.000;2022-10-16T06:58:17;14.70;99.90
5786;DHT22;2919;48.630;9.000;2022-10-16T07:00:42;14.70;99.90
5786;DHT22;2919;48.630;9.000;2022-10-16T07:03:08;14.90;99.90
5786;DHT22;2919;48.630;9.000;2022-10-16T07:05:38;15.00;99.90
5786;DHT22;2919;48.630;9.000;2022-10-16T07:08:04;15.10;99.90
5786;DHT22;2919;48.630;9.000;2022-10-16T07:10:31;15.10;99.90
5786;DHT22;2919;48.630;9.000;2022-10-16T07:12:56;15.20;99.90
5786;DHT22;2919;48.630;9.000;2022-10-16T07:15:22;15.20;99.90
5786;DHT22;2919;48.630;9.000;2022-10-16T07:17:48;15.20;99.90
5786;DHT22;2919;48.630;9.000;2022-10-16T07:20:13;15.20;99.90
5786;DHT22;2919;48.630;9.000;2022-10-16T07:22:39;15.20;99.90
5786;DHT22;2919;48.630;9.000;2022-10-16T07:25:05;15.20;99.90
5786;DHT22;2919;48.630;9.000;2022-10-16T07:27:31;15.10;99.90
5786;DHT22;2919;48.630;9.000;2022-10-16T07:29:56;15.10;99.90
5786;DHT22;2919;48.630;9.000;2022-10-16T07:32:22;15.10;99.90
5786;DHT22;2919;48.630;9.000;2022-10-16T07:34:47;15.10;99.90
5786;DHT22;2919;48.630;9.000;2022-10-16T07:37:13;15.10;99.90
5786;DHT22;2919;48.630;9.000;2022-10-16T07:39:39;15.00;99.90
5786;DHT22;2919;48.630;9.000;2022-10-16T07:42:04;15.00;99.90
5786;DHT22;2919;48.630;9.000;2022-10-16T07:44:30;15.10;99.90
5786;DHT22;2919;48.630;9.000;2022-10-16T07:46:55;15.20;99.90
5786;DHT22;2919;48.630;9.000;2022-10-16T07:49:21;15.20;99.90
5786;DHT22;2919;48.630;9.000;2022-10-16T07:51:46;15.30;99.90
5786;DHT22;2919;48.630;9.000;2022-10-16T07:54:12;15.30;99.90
5786;DHT22;2919;48.630;9.000;2022-10-16T07:56:38;15.40;99.90
5786;DHT22;2919;48.630;9.000;2022-10-16T07:59:03;15.50;99.90
5786;DHT22;2919;48.630;9.000;2022-10-16T08:01:29;15.60;99.90
5786;DHT22;2919;48.630;9.000;2022-10-16T08:03:54;15.50;99.90
5786;DHT22;2919;48.630;9.000;2022-10-16T08:06:21;15.50;99.90
5786;DHT22;2919;48.630;9.000;2022-10-16T08:08:47;15.50;99.90
5786;DHT22;2919;48.630;9.000;2022-10-16T08:11:13;15.60;99.90
5786;DHT22;2919;48.630;9.000;2022-10-16T08:13:40;15.70;99.90
5786;DHT22;2919;48.630;9.000;2022-10-16T08:16:06;15.70;99.90
5786;DHT22;2919;48.630;9.000;2022-10-16T08:18:38;15.80;99.90
5786;DHT22;2919;48.630;9.000;2022-10-16T08:21:05;16.10;99.90
5786;DHT22;2919;48.630;9.000;2022-10-16T08:23:32;16.20;99.90
5786;DHT22;2919;48.630;9.000;2022-10-16T08:26:05;16.40;99.90
5786;DHT22;2919;48.630;9.000;2022-10-16T08:28:31;16.40;99.90
5786;DHT22;2919;48.630;9.000;2022-10-16T08:31:04;16.50;99.90
5786;DHT22;2919;48.630;9.000;2022-10-16T08:33:29;16.50;99.90
5786;DHT22;2919;48.630;9.000;2022-10-16T08:35:55;16.60;99.90
5786;DHT22;2919;48.630;9.000;2022-10-16T08:38:21;16.70;99.90
5786;DHT22;2919;48.630;9.000;2022-10-16T08:40:46;16.70;99.90
5786;DHT22;2919;48.630;9.000;2022-10-16T08:48:53;16.60;99.90
5786;DHT22;2919;48.630;9.000;2022-10-16T08:56:17;16.60;99.90
5786;DHT22;2919;48.630;9.000;2022-10-16T08:58:45;16.70;99.90
5786;DHT22;2919;48.630;9.000;2022-10-16T09:01:15;16.70;99.90
5786;DHT22;2919;48.630;9.000;2022-10-16T09:03:53;16.90;99.90
5786;DHT22;2919;48.630;9.000;2022-10-16T09:12:12;17.10;99.90
5786;DHT22;2919;48.630;9.000;2022-10-16T09:15:07;17.10;99.90
5786;DHT22;2919;48.630;9.000;2022-10-16T09:18:27;17.20;99.90
5786;DHT22;2919;48.630;9.000;2022-10-16T09:21:19;17.20;99.90
5786;DHT22;2919;48.630;9.000;2022-10-16T09:23:47;17.30;99.90
5786;DHT22;2919;48.630;9.000;2022-10-16T09:26:14;17.40;99.90
5786;DHT22;2919;48.630;9.000;2022-10-16T09:28:41;17.50;99.90
5786;DHT22;2919;48.630;9.000;2022-10-16T09:31:15;17.70;99.90
5786;DHT22;2919;48.630;9.000;2022-10-16T09:33:41;18.10;99.90
5786;DHT22;2919;48.630;9.000;2022-10-16T09:36:08;18.30;99.90
5786;DHT22;2919;48.630;9.000;2022-10-16T09:38:35;18.50;99.90
5786;DHT22;2919;48.630;9.000;2022-10-16T09:41:21;18.80;99.90
5786;DHT22;2919;48.630;9.000;2022-10-16T09:46:29;19.20;99.90
5786;DHT22;2919;48.630;9.000;2022-10-16T09:49:24;19.50;99.90
5786;DHT22;2919;48.630;9.000;2022-10-16T09:51:50;19.70;99.90
5786;DHT22;2919;48.630;9.000;2022-10-16T09:54:20;19.90;99.90
5786;DHT22;2919;48.630;9.000;2022-10-16T09:56:47;20.00;99.90
5786;DHT22;2919;48.630;9.000;2022-10-16T09:59:21;20.00;99.90
5786;DHT22;2919;48.630;9.000;2022-10-16T10:01:54;20.10;99.90
5786;DHT22;2919;48.630;9.000;2022-10-16T10:04:22;20.20;99.90
5786;DHT22;2919;48.630;9.000;2022-10-16T10:06:52;20.10;99.90
5786;DHT22;2919;48.630;9.000;2022-10-16T10:09:26;20.10;99.90
5786;DHT22;2919;48.630;9.000;2022-10-16T10:12:02;20.00;99.90
5786;DHT22;2919;48.630;9.000;2022-10-16T10:30:29;20.80;99.90
5786;DHT22;2919;48.630;9.000;2022-10-16T10:35:45;20.90;99.90
5786;DHT22;2919;48.630;9.000;2022-10-16T10:38:34;21.00;99.90
5786;DHT22;2919;48.630;9.000;2022-10-16T10:44:16;21.50;99.90
5786;DHT22;2919;48.630;9.000;2022-10-16T10:47:15;21.40;99.90
5786;DHT22;2919;48.630;9.000;2022-10-16T10:50:07;21.40;99.90
5786;DHT22;2919;48.630;9.000;2022-10-16T11:01:40;21.90;99.90
5786;DHT22;2919;48.630;9.000;2022-10-16T11:04:33;22.20;99.90
5786;DHT22;2919;48.630;9.000;2022-10-16T11:07:05;22.20;99.90
5786;DHT22;2919;48.630;9.000;2022-10-16T11:09:51;22.00;99.20
5786;DHT22;2919;48.630;9.000;2022-10-16T11:12:26;21.90;99.00
5786;DHT22;2919;48.630;9.000;2022-10-16T11:15:32;21.80;99.10
5786;DHT22;2919;48.630;9.000;2022-10-16T11:17:55;21.70;99.00
5786;DHT22;2919;48.630;9.000;2022-10-16T11:20:31;21.60;99.10
5786;DHT22;2919;48.630;9.000;2022-10-16T11:25:46;21.90;99.90
5786;DHT22;2919;48.630;9.000;2022-10-16T11:28:35;22.10;98.80
5786;DHT22;2919;48.630;9.000;2022-10-16T11:31:27;22.30;98.80
5786;DHT22;2919;48.630;9.000;2022-10-16T11:34:22;22.40;99.10
5786;DHT22;2919;48.630;9.000;2022-10-16T11:36:57;22.60;98.00
5786;DHT22;2919;48.630;9.000;2022-10-16T11:39:26;22.90;96.90
5786;DHT22;2919;48.630;9.000;2022-10-16T11:52:48;23.00;96.20
5786;DHT22;2919;48.630;9.000;2022-10-16T11:55:24;23.00;96.40
5786;DHT22;2919;48.630;9.000;2022-10-16T12:00:47;23.00;96.90
5786;DHT22;2919;48.630;9.000;2022-10-16T12:06:14;23.20;96.20
5786;DHT22;2919;48.630;9.000;2022-10-16T12:08:45;23.50;96.30
5786;DHT22;2919;48.630;9.000;2022-10-16T12:11:32;23.60;97.00
5786;DHT22;2919;48.630;9.000;2022-10-16T12:16:38;23.40;96.50
5786;DHT22;2919;48.630;9.000;2022-10-16T12:19:12;23.30;96.30
5786;DHT22;2919;48.630;9.000;2022-10-16T12:21:39;23.10;96.20
5786;DHT22;2919;48.630;9.000;2022-10-16T12:24:05;22.80;97.20
5786;DHT22;2919;48.630;9.000;2022-10-16T12:26:39;22.80;96.70
5786;DHT22;2919;48.630;9.000;2022-10-16T12:31:54;23.20;95.60
5786;DHT22;2919;48.630;9.000;2022-10-16T12:36:48;22.70;95.10
5786;DHT22;2919;48.630;9.000;2022-10-16T12:39:22;22.60;95.00
5786;DHT22;2919;48.630;9.000;2022-10-16T12:41:48;22.60;94.00
5786;DHT22;2919;48.630;9.000;2022-10-16T12:44:23;22.40;95.40
5786;DHT22;2919;48.630;9.000;2022-10-16T12:46:51;22.20;95.40
5786;DHT22;2919;48.630;9.000;2022-10-16T12:49:48;22.30;96.50
5786;DHT22;2919;48.630;9.000;2022-10-16T12:52:43;22.30;97.50
5786;DHT22;2919;48.630;9.000;2022-10-16T12:55:18;22.30;98.50
5786;DHT22;2919;48.630;9.000;2022-10-16T13:03:39;22.90;97.80
5786;DHT22;2919;48.630;9.000;2022-10-16T13:12:59;23.10;95.30
5786;DHT22;2919;48.630;9.000;2022-10-16T13:15:27;23.10;95.40
5786;DHT22;2919;48.630;9.000;2022-10-16T13:18:04;23.20;94.90
5786;DHT22;2919;48.630;9.000;2022-10-16T13:23:15;22.90;94.70
5786;DHT22;2919;48.630;9.000;2022-10-16T13:25:46;22.80;94.20
5786;DHT22;2919;48.630;9.000;2022-10-16T13:28:15;23.00;93.50
5786;DHT22;2919;48.630;9.000;2022-10-16T13:30:56;22.90;94.00
5786;DHT22;2919;48.630;9.000;2022-10-16T13:36:00;22.90;94.40
5786;DHT22;2919;48.630;9.000;2022-10-16T13:38:31;22.80;94.90
5786;DHT22;2919;48.630;9.000;2022-10-16T13:41:15;22.60;95.70
5786;DHT22;2919;48.630;9.000;2022-10-16T13:43:45;22.40;97.10
5786;DHT22;2919;48.630;9.000;2022-10-16T13:46:16;22.20;98.00
5786;DHT22;2919;48.630;9.000;2022-10-16T13:48:42;22.00;97.00
5786;DHT22;2919;48.630;9.000;2022-10-16T13:53:36;21.70;96.80
5786;DHT22;2919;48.630;9.000;2022-10-16T13:56:04;21.80;98.30
5786;DHT22;2919;48.630;9.000;2022-10-16T13:58:31;21.80;97.50
5786;DHT22;2919;48.630;9.000;2022-10-16T14:01:15;21.90;96.40
5786;DHT22;2919;48.630;9.000;2022-10-16T14:03:41;21.90;97.90
5786;DHT22;2919;48.630;9.000;2022-10-16T14:06:15;21.90;99.10
5786;DHT22;2919;48.630;9.000;2022-10-16T14:08:44;21.90;97.20
5786;DHT22;2919;48.630;9.000;2022-10-16T14:11:11;21.90;96.60
5786;DHT22;2919;48.630;9.000;2022-10-16T14:13:40;21.90;98.70
5786;DHT22;2919;48.630;9.000;2022-10-16T14:16:17;21.80;98.40
5786;DHT22;2919;48.630;9.000;2022-10-16T14:18:46;21.90;97.60
5786;DHT22;2919;48.630;9.000;2022-10-16T14:21:16;21.80;97.90
5786;DHT22;2919;48.630;9.000;2022-10-16T14:23:42;21.80;98.00
5786;DHT22;2919;48.630;9.000;2022-10-16T14:28:34;21.80;98.40
5786;DHT22;2919;48.630;9.000;2022-10-16T14:31:01;21.80;98.80
5786;DHT22;2919;48.630;9.000;2022-10-16T14:38:27;21.90;98.00
5786;DHT22;2919;48.630;9.000;2022-10-16T14:40:53;21.90;97.90
5786;DHT22;2919;48.630;9.000;2022-10-16T14:43:26;21.90;98.20
5786;DHT22;2919;48.630;9.000;2022-10-16T14:45:56;21.90;98.90
5786;DHT22;2919;48.630;9.000;2022-10-16T14:48:22;21.80;98.30
5786;DHT22;2919;48.630;9.000;2022-10-16T14:50:48;21.80;98.30
5786;DHT22;2919;48.630;9.000;2022-10-16T14:53:13;21.70;98.30
5786;DHT22;2919;48.630;9.000;2022-10-16T14:55:40;21.60;97.60
5786;DHT22;2919;48.630;9.000;2022-10-16T14:58:22;21.60;98.50
5786;DHT22;2919;48.630;9.000;2022-10-16T15:00:49;21.50;98.20
5786;DHT22;2919;48.630;9.000;2022-10-16T15:03:15;21.50;98.50
5786;DHT22;2919;48.630;9.000;2022-10-16T15:05:41;21.50;97.50
5786;DHT22;2919;48.630;9.000;2022-10-16T15:08:06;21.40;97.70
5786;DHT22;2919;48.630;9.000;2022-10-16T15:10:38;21.30;98.40
5786;DHT22;2919;48.630;9.000;2022-10-16T15:13:03;21.20;98.60
5786;DHT22;2919;48.630;9.000;2022-10-16T15:15:37;21.20;99.00
5786;DHT22;2919;48.630;9.000;2022-10-16T15:18:04;21.00;98.90
5786;DHT22;2919;48.630;9.000;2022-10-16T15:20:33;21.00;99.30
5786;DHT22;2919;48.630;9.000;2022-10-16T15:23:05;21.00;99.40
5786;DHT22;2919;48.630;9.000;2022-10-16T15:28:02;20.90;99.10
5786;DHT22;2919;48.630;9.000;2022-10-16T15:30:28;20.80;98.90
5786;DHT22;2919;48.630;9.000;2022-10-16T15:32:54;20.70;99.10
5786;DHT22;2919;48.630;9.000;2022-10-16T15:35:19;20.70;99.30
5786;DHT22;2919;48.630;9.000;2022-10-16T15:37:46;20.60;99.90
5786;DHT22;2919;48.630;9.000;2022-10-16T15:40:12;20.50;99.90
5786;DHT22;2919;48.630;9.000;2022-10-16T15:42:38;20.40;99.90
5786;DHT22;2919;48.630;9.000;2022-10-16T15:45:04;20.20;99.90
5786;DHT22;2919;48.630;9.000;2022-10-16T15:47:31;20.20;99.90
5786;DHT22;2919;48.630;9.000;2022-10-16T15:49:57;20.00;99.90
5786;DHT22;2919;48.630;9.000;2022-10-16T15:52:22;19.90;99.90
5786;DHT22;2919;48.630;9.000;2022-10-16T15:54:48;19.80;99.90
5786;DHT22;2919;48.630;9.000;2022-10-16T15:57:14;19.60;99.90
5786;DHT22;2919;48.630;9.000;2022-10-16T15:59:39;19.60;99.90
5786;DHT22;2919;48.630;9.000;2022-10-16T16:02:05;19.30;99.90
5786;DHT22;2919;48.630;9.000;2022-10-16T16:04:31;19.30;99.90
5786;DHT22;2919;48.630;9.000;2022-10-16T16:06:56;19.10;99.90
5786;DHT22;2919;48.630;9.000;2022-10-16T16:09:22;19.00;99.90
5786;DHT22;2919;48.630;9.000;2022-10-16T16:11:49;18.80;99.90
5786;DHT22;2919;48.630;9.000;2022-10-16T16:14:14;18.70;99.90
5786;DHT22;2919;48.630;9.000;2022-10-16T16:16:41;18.60;99.90
5786;DHT22;2919;48.630;9.000;2022-10-16T16:19:07;18.50;99.90
5786;DHT22;2919;48.630;9.000;2022-10-16T16:21:34;18.40;99.90
5786;DHT22;2919;48.630;9.000;2022-10-16T16:23:59;18.30;99.90
5786;DHT22;2919;48.630;9.000;2022-10-16T16:26:29;18.20;99.90
5786;DHT22;2919;48.630;9.000;2022-10-16T16:29:02;18.10;99.90
5786;DHT22;2919;48.630;9.000;2022-10-16T16:31:29;18.00;99.90
5786;DHT22;2919;48.630;9.000;2022-10-16T16:33:56;17.90;99.90
5786;DHT22;2919;48.630;9.000;2022-10-16T16:36:23;17.80;99.90
5786;DHT22;2919;48.630;9.000;2022-10-16T16:38:49;17.70;99.90
5786;DHT22;2919;48.630;9.000;2022-10-16T16:41:20;17.60;99.90
5786;DHT22;2919;48.630;9.000;2022-10-16T16:43:46;17.50;99.90
5786;DHT22;2919;48.630;9.000;2022-10-16T16:46:13;17.40;99.90
5786;DHT22;2919;48.630;9.000;2022-10-16T16:48:39;17.30;99.90
5786;DHT22;2919;48.630;9.000;2022-10-16T16:51:09;17.30;99.90
5786;DHT22;2919;48.630;9.000;2022-10-16T16:53:41;17.20;99.90
5786;DHT22;2919;48.630;9.000;2022-10-16T16:56:07;17.10;99.90
5786;DHT22;2919;48.630;9.000;2022-10-16T16:58:33;17.00;99.90
5786;DHT22;2919;48.630;9.000;2022-10-16T17:00:59;16.90;99.90
5786;DHT22;2919;48.630;9.000;2022-10-16T17:03:28;16.80;99.90
5786;DHT22;2919;48.630;9.000;2022-10-16T17:05:58;16.80;99.90
5786;DHT22;2919;48.630;9.000;2022-10-16T17:08:23;16.70;99.90
5786;DHT22;2919;48.630;9.000;2022-10-16T17:10:49;16.60;99.90
5786;DHT22;2919;48.630;9.000;2022-10-16T17:13:18;16.50;99.90
5786;DHT22;2919;48.630;9.000;2022-10-16T17:15:48;16.40;99.90
5786;DHT22;2919;48.630;9.000;2022-10-16T17:18:14;16.40;99.90
5786;DHT22;2919;48.630;9.000;2022-10-16T17:20:40;16.30;99.90
5786;DHT22;2919;48.630;9.000;2022-10-16T17:23:05;16.30;99.90
5786;DHT22;2919;48.630;9.000;2022-10-16T17:25:31;16.20;99.90
5786;DHT22;2919;48.630;9.000;2022-10-16T17:27:57;16.30;99.90
5786;DHT22;2919;48.630;9.000;2022-10-16T17:30:24;16.30;99.90
5786;DHT22;2919;48.630;9.000;2022-10-16T17:32:49;16.30;99.90
5786;DHT22;2919;48.630;9.000;2022-10-16T17:35:15;16.10;99.90
5786;DHT22;2919;48.630;9.000;2022-10-16T17:37:41;16.10;99.90
5786;DHT22;2919;48.630;9.000;2022-10-16T17:40:08;16.00;99.90
5786;DHT22;2919;48.630;9.000;2022-10-16T17:42:34;16.00;99.90
5786;DHT22;2919;48.630;9.000;2022-10-16T17:45:00;16.00;99.90
5786;DHT22;2919;48.630;9.000;2022-10-16T17:47:27;15.80;99.90
5786;DHT22;2919;48.630;9.000;2022-10-16T17:49:52;15.90;99.90
5786;DHT22;2919;48.630;9.000;2022-10-16T17:52:18;15.80;99.90
5786;DHT22;2919;48.630;9.000;2022-10-16T17:54:44;15.70;99.90
5786;DHT22;2919;48.630;9.000;2022-10-16T17:57:09;15.80;99.90
5786;DHT22;2919;48.630;9.000;2022-10-16T17:59:35;15.90;99.90
5786;DHT22;2919;48.630;9.000;2022-10-16T18:02:01;16.00;99.90
5786;DHT22;2919;48.630;9.000;2022-10-16T18:04:27;16.10;99.90
5786;DHT22;2919;48.630;9.000;2022-10-16T18:06:53;16.00;99.90
5786;DHT22;2919;48.630;9.000;2022-10-16T18:09:20;16.00;99.90
5786;DHT22;2919;48.630;9.000;2022-10-16T18:11:46;16.10;99.90
5786;DHT22;2919;48.630;9.000;2022-10-16T18:14:15;16.00;99.90
5786;DHT22;2919;48.630;9.000;2022-10-16T18:16:41;16.00;99.90
5786;DHT22;2919;48.630;9.000;2022-10-16T18:19:09;15.90;99.90
5786;DHT22;2919;48.630;9.000;2022-10-16T18:21:34;16.00;99.90
5786;DHT22;2919;48.630;9.000;2022-10-16T18:24:00;16.00;99.90